sensor_id;sensor_type;location;lat;lon;timestamp;P1;durP1;ratioP1;P2;durP2;ratioP2
62929;SDS011;49036;42.782;23.108;2023-02-28T00:01:13;14.50;;;6.60;;
62929;SDS011;49036;42.782;23.108;2023-02-28T00:03:40;18.05;;;7.22;;
62929;SDS011;49036;42.782;23.108;2023-02-28T00:06:07;13.80;;;6.80;;
62929;SDS011;49036;42.782;23.108;2023-02-28T00:08:34;17.67;;;7.82;;
62929;SDS011;49036;42.782;23.108;2023-02-28T00:11:04;19.42;;;7.85;;
62929;SDS011;49036;42.782;23.108;2023-02-28T00:13:31;22.00;;;7.93;;
62929;SDS011;49036;42.782;23.108;2023-02-28T00:16:00;17.48;;;7.70;;
62929;SDS011;49036;42.782;23.108;2023-02-28T00:18:27;15.93;;;6.43;;
62929;SDS011;49036;42.782;23.108;2023-02-28T00:20:52;19.88;;;9.95;;
62929;SDS011;49036;42.782;23.108;2023-02-28T00:23:18;20.20;;;8.50;;
62929;SDS011;49036;42.782;23.108;2023-02-28T00:25:43;16.75;;;8.60;;
62929;SDS011;49036;42.782;23.108;2023-02-28T00:28:10;18.27;;;8.02;;
62929;SDS011;49036;42.782;23.108;2023-02-28T00:30:35;23.40;;;9.35;;
62929;SDS011;49036;42.782;23.108;2023-02-28T00:33:01;19.35;;;9.55;;
62929;SDS011;49036;42.782;23.108;2023-02-28T00:35:26;18.67;;;8.27;;
62929;SDS011;49036;42.782;23.108;2023-02-28T00:37:52;31.05;;;11.18;;
62929;SDS011;49036;42.782;23.108;2023-02-28T00:40:17;28.63;;;11.27;;
62929;SDS011;49036;42.782;23.108;2023-02-28T00:42:43;29.73;;;11.15;;
62929;SDS011;49036;42.782;23.108;2023-02-28T00:45:09;34.88;;;11.38;;
62929;SDS011;49036;42.782;23.108;2023-02-28T00:47:34;37.00;;;12.02;;
62929;SDS011;49036;42.782;23.108;2023-02-28T00:50:00;47.95;;;16.67;;
62929;SDS011;49036;42.782;23.108;2023-02-28T00:52:26;53.28;;;17.25;;
62929;SDS011;49036;42.782;23.108;2023-02-28T00:54:51;42.15;;;14.77;;
62929;SDS011;49036;42.782;23.108;2023-02-28T00:57:17;30.02;;;13.20;;
62929;SDS011;49036;42.782;23.108;2023-02-28T00:59:42;49.85;;;14.43;;
62929;SDS011;49036;42.782;23.108;2023-02-28T01:02:08;53.03;;;14.50;;
62929;SDS011;49036;42.782;23.108;2023-02-28T01:04:33;44.28;;;16.38;;
62929;SDS011;49036;42.782;23.108;2023-02-28T01:06:59;38.80;;;14.48;;
62929;SDS011;49036;42.782;23.108;2023-02-28T01:09:25;39.20;;;13.98;;
62929;SDS011;49036;42.782;23.108;2023-02-28T01:11:50;43.60;;;16.13;;
62929;SDS011;49036;42.782;23.108;2023-02-28T01:14:16;44.38;;;14.32;;
62929;SDS011;49036;42.782;23.108;2023-02-28T01:16:43;44.47;;;15.07;;
62929;SDS011;49036;42.782;23.108;2023-02-28T01:19:09;41.05;;;14.73;;
62929;SDS011;49036;42.782;23.108;2023-02-28T01:21:34;38.17;;;13.38;;
62929;SDS011;49036;42.782;23.108;2023-02-28T01:24:01;36.35;;;13.95;;
62929;SDS011;49036;42.782;23.108;2023-02-28T01:28:52;40.67;;;13.50;;
62929;SDS011;49036;42.782;23.108;2023-02-28T01:31:18;38.45;;;13.93;;
62929;SDS011;49036;42.782;23.108;2023-02-28T01:33:45;41.35;;;14.02;;
62929;SDS011;49036;42.782;23.108;2023-02-28T01:36:11;32.22;;;12.68;;
62929;SDS011;49036;42.782;23.108;2023-02-28T01:38:39;32.05;;;10.55;;
62929;SDS011;49036;42.782;23.108;2023-02-28T01:41:05;30.17;;;11.10;;
62929;SDS011;49036;42.782;23.108;2023-02-28T01:45:58;31.90;;;10.55;;
62929;SDS011;49036;42.782;23.108;2023-02-28T01:48:34;33.85;;;11.85;;
62929;SDS011;49036;42.782;23.108;2023-02-28T01:51:05;33.25;;;10.52;;
62929;SDS011;49036;42.782;23.108;2023-02-28T01:53:42;28.75;;;11.55;;
62929;SDS011;49036;42.782;23.108;2023-02-28T01:56:13;41.63;;;11.02;;
62929;SDS011;49036;42.782;23.108;2023-02-28T02:01:15;29.10;;;9.93;;
62929;SDS011;49036;42.782;23.108;2023-02-28T02:03:56;21.40;;;9.35;;
62929;SDS011;49036;42.782;23.108;2023-02-28T02:06:33;22.48;;;9.18;;
62929;SDS011;49036;42.782;23.108;2023-02-28T02:09:02;24.27;;;10.13;;
62929;SDS011;49036;42.782;23.108;2023-02-28T02:11:28;26.42;;;9.77;;
62929;SDS011;49036;42.782;23.108;2023-02-28T02:38:21;24.05;;;8.93;;
62929;SDS011;49036;42.782;23.108;2023-02-28T02:40:57;33.60;;;11.05;;
62929;SDS011;49036;42.782;23.108;2023-02-28T02:43:25;25.83;;;10.52;;
62929;SDS011;49036;42.782;23.108;2023-02-28T02:45:59;29.17;;;10.75;;
62929;SDS011;49036;42.782;23.108;2023-02-28T02:50:57;51.17;;;13.85;;
62929;SDS011;49036;42.782;23.108;2023-02-28T02:53:27;53.40;;;14.18;;
62929;SDS011;49036;42.782;23.108;2023-02-28T02:55:57;64.40;;;15.18;;
62929;SDS011;49036;42.782;23.108;2023-02-28T02:58:26;56.75;;;13.15;;
62929;SDS011;49036;42.782;23.108;2023-02-28T03:00:57;56.22;;;12.48;;
62929;SDS011;49036;42.782;23.108;2023-02-28T03:03:26;62.97;;;14.60;;
62929;SDS011;49036;42.782;23.108;2023-02-28T03:05:54;67.95;;;15.15;;
62929;SDS011;49036;42.782;23.108;2023-02-28T03:08:24;89.35;;;15.18;;
62929;SDS011;49036;42.782;23.108;2023-02-28T03:10:51;107.38;;;16.70;;
62929;SDS011;49036;42.782;23.108;2023-02-28T03:27:55;40.47;;;13.75;;
62929;SDS011;49036;42.782;23.108;2023-02-28T03:35:39;94.93;;;16.50;;
62929;SDS011;49036;42.782;23.108;2023-02-28T03:41:37;97.80;;;15.95;;
62929;SDS011;49036;42.782;23.108;2023-02-28T03:44:09;106.25;;;16.08;;
62929;SDS011;49036;42.782;23.108;2023-02-28T03:46:46;141.63;;;18.73;;
62929;SDS011;49036;42.782;23.108;2023-02-28T03:49:22;103.30;;;17.50;;
62929;SDS011;49036;42.782;23.108;2023-02-28T03:51:52;91.25;;;17.77;;
62929;SDS011;49036;42.782;23.108;2023-02-28T03:54:35;86.95;;;15.60;;
62929;SDS011;49036;42.782;23.108;2023-02-28T03:57:12;130.95;;;19.33;;
62929;SDS011;49036;42.782;23.108;2023-02-28T03:59:49;97.28;;;13.85;;
62929;SDS011;49036;42.782;23.108;2023-02-28T04:02:21;109.45;;;15.43;;
62929;SDS011;49036;42.782;23.108;2023-02-28T04:04:47;109.28;;;16.92;;
62929;SDS011;49036;42.782;23.108;2023-02-28T04:07:13;117.18;;;16.25;;
62929;SDS011;49036;42.782;23.108;2023-02-28T04:09:40;148.60;;;18.73;;
62929;SDS011;49036;42.782;23.108;2023-02-28T04:12:06;125.32;;;18.92;;
62929;SDS011;49036;42.782;23.108;2023-02-28T04:14:32;190.48;;;20.90;;
62929;SDS011;49036;42.782;23.108;2023-02-28T04:16:57;179.45;;;26.65;;
62929;SDS011;49036;42.782;23.108;2023-02-28T04:19:23;192.43;;;24.58;;
62929;SDS011;49036;42.782;23.108;2023-02-28T04:21:50;180.82;;;22.42;;
62929;SDS011;49036;42.782;23.108;2023-02-28T04:24:17;174.93;;;18.83;;
62929;SDS011;49036;42.782;23.108;2023-02-28T04:26:48;82.22;;;14.20;;
62929;SDS011;49036;42.782;23.108;2023-02-28T04:29:21;125.90;;;16.80;;
62929;SDS011;49036;42.782;23.108;2023-02-28T04:31:48;62.97;;;12.05;;
62929;SDS011;49036;42.782;23.108;2023-02-28T04:34:14;86.47;;;14.38;;
62929;SDS011;49036;42.782;23.108;2023-02-28T04:36:39;94.95;;;15.45;;
62929;SDS011;49036;42.782;23.108;2023-02-28T04:39:05;103.03;;;14.02;;
62929;SDS011;49036;42.782;23.108;2023-02-28T04:41:31;88.95;;;14.65;;
62929;SDS011;49036;42.782;23.108;2023-02-28T04:43:56;52.00;;;11.52;;
62929;SDS011;49036;42.782;23.108;2023-02-28T04:46:22;99.30;;;15.45;;
62929;SDS011;49036;42.782;23.108;2023-02-28T04:48:48;92.45;;;14.52;;
62929;SDS011;49036;42.782;23.108;2023-02-28T04:51:14;60.58;;;12.82;;
62929;SDS011;49036;42.782;23.108;2023-02-28T04:53:42;120.15;;;15.18;;
62929;SDS011;49036;42.782;23.108;2023-02-28T04:56:08;122.47;;;17.27;;
62929;SDS011;49036;42.782;23.108;2023-02-28T04:58:37;69.30;;;13.90;;
62929;SDS011;49036;42.782;23.108;2023-02-28T05:01:06;102.65;;;17.42;;
62929;SDS011;49036;42.782;23.108;2023-02-28T05:03:43;94.10;;;15.38;;
62929;SDS011;49036;42.782;23.108;2023-02-28T05:06:09;88.07;;;18.95;;
62929;SDS011;49036;42.782;23.108;2023-02-28T05:08:36;106.40;;;18.48;;
62929;SDS011;49036;42.782;23.108;2023-02-28T05:11:02;107.82;;;16.50;;
62929;SDS011;49036;42.782;23.108;2023-02-28T05:13:28;102.45;;;16.83;;
62929;SDS011;49036;42.782;23.108;2023-02-28T05:15:54;100.32;;;17.30;;
62929;SDS011;49036;42.782;23.108;2023-02-28T05:18:20;106.18;;;16.70;;
62929;SDS011;49036;42.782;23.108;2023-02-28T05:20:45;135.82;;;20.55;;
62929;SDS011;49036;42.782;23.108;2023-02-28T05:23:12;127.40;;;19.63;;
62929;SDS011;49036;42.782;23.108;2023-02-28T05:25:38;136.40;;;21.33;;
62929;SDS011;49036;42.782;23.108;2023-02-28T05:28:05;119.20;;;19.77;;
62929;SDS011;49036;42.782;23.108;2023-02-28T05:30:30;126.55;;;18.80;;
62929;SDS011;49036;42.782;23.108;2023-02-28T05:32:59;120.00;;;21.08;;
62929;SDS011;49036;42.782;23.108;2023-02-28T05:35:25;145.30;;;21.00;;
62929;SDS011;49036;42.782;23.108;2023-02-28T05:37:51;151.43;;;20.67;;
62929;SDS011;49036;42.782;23.108;2023-02-28T05:40:17;133.30;;;20.13;;
62929;SDS011;49036;42.782;23.108;2023-02-28T05:42:45;96.43;;;17.27;;
62929;SDS011;49036;42.782;23.108;2023-02-28T05:45:11;111.03;;;18.05;;
62929;SDS011;49036;42.782;23.108;2023-02-28T05:47:36;133.73;;;20.73;;
62929;SDS011;49036;42.782;23.108;2023-02-28T05:50:03;101.97;;;21.25;;
62929;SDS011;49036;42.782;23.108;2023-02-28T05:52:29;113.43;;;20.83;;
62929;SDS011;49036;42.782;23.108;2023-02-28T05:54:55;125.30;;;21.50;;
62929;SDS011;49036;42.782;23.108;2023-02-28T05:57:21;157.45;;;20.55;;
62929;SDS011;49036;42.782;23.108;2023-02-28T06:02:13;131.35;;;22.20;;
62929;SDS011;49036;42.782;23.108;2023-02-28T06:04:40;141.27;;;31.17;;
62929;SDS011;49036;42.782;23.108;2023-02-28T06:09:32;105.97;;;18.70;;
62929;SDS011;49036;42.782;23.108;2023-02-28T06:12:01;173.40;;;33.92;;
62929;SDS011;49036;42.782;23.108;2023-02-28T06:14:30;150.80;;;27.98;;
62929;SDS011;49036;42.782;23.108;2023-02-28T06:16:57;157.27;;;31.15;;
62929;SDS011;49036;42.782;23.108;2023-02-28T06:19:22;127.38;;;19.25;;
62929;SDS011;49036;42.782;23.108;2023-02-28T06:21:51;97.13;;;17.02;;
62929;SDS011;49036;42.782;23.108;2023-02-28T06:24:21;131.32;;;20.02;;
62929;SDS011;49036;42.782;23.108;2023-02-28T06:26:48;103.80;;;21.58;;
62929;SDS011;49036;42.782;23.108;2023-02-28T06:29:13;122.53;;;44.38;;
62929;SDS011;49036;42.782;23.108;2023-02-28T06:31:46;86.22;;;24.25;;
62929;SDS011;49036;42.782;23.108;2023-02-28T06:34:12;62.15;;;18.17;;
62929;SDS011;49036;42.782;23.108;2023-02-28T06:36:39;61.10;;;22.13;;
62929;SDS011;49036;42.782;23.108;2023-02-28T06:39:06;71.97;;;17.20;;
62929;SDS011;49036;42.782;23.108;2023-02-28T06:41:32;113.70;;;18.20;;
62929;SDS011;49036;42.782;23.108;2023-02-28T06:44:02;92.78;;;16.63;;
62929;SDS011;49036;42.782;23.108;2023-02-28T06:46:29;89.05;;;18.15;;
62929;SDS011;49036;42.782;23.108;2023-02-28T06:48:54;167.65;;;21.98;;
62929;SDS011;49036;42.782;23.108;2023-02-28T06:51:20;161.98;;;22.45;;
62929;SDS011;49036;42.782;23.108;2023-02-28T06:53:47;56.40;;;16.35;;
62929;SDS011;49036;42.782;23.108;2023-02-28T06:56:14;98.40;;;17.65;;
62929;SDS011;49036;42.782;23.108;2023-02-28T06:58:40;59.28;;;17.25;;
62929;SDS011;49036;42.782;23.108;2023-02-28T07:01:07;43.50;;;16.67;;
62929;SDS011;49036;42.782;23.108;2023-02-28T07:03:34;52.15;;;18.17;;
62929;SDS011;49036;42.782;23.108;2023-02-28T07:06:00;47.10;;;18.00;;
62929;SDS011;49036;42.782;23.108;2023-02-28T07:08:27;45.20;;;15.80;;
62929;SDS011;49036;42.782;23.108;2023-02-28T07:10:53;50.38;;;18.40;;
62929;SDS011;49036;42.782;23.108;2023-02-28T07:13:19;51.17;;;17.90;;
62929;SDS011;49036;42.782;23.108;2023-02-28T07:15:52;41.45;;;15.93;;
62929;SDS011;49036;42.782;23.108;2023-02-28T07:18:22;54.47;;;16.55;;
62929;SDS011;49036;42.782;23.108;2023-02-28T07:20:47;51.50;;;15.45;;
62929;SDS011;49036;42.782;23.108;2023-02-28T07:23:13;55.50;;;16.75;;
62929;SDS011;49036;42.782;23.108;2023-02-28T07:25:39;74.15;;;18.05;;
62929;SDS011;49036;42.782;23.108;2023-02-28T07:28:04;54.33;;;15.60;;
62929;SDS011;49036;42.782;23.108;2023-02-28T07:30:30;56.75;;;19.17;;
62929;SDS011;49036;42.782;23.108;2023-02-28T07:32:55;44.83;;;16.02;;
62929;SDS011;49036;42.782;23.108;2023-02-28T07:35:21;42.55;;;15.95;;
62929;SDS011;49036;42.782;23.108;2023-02-28T07:37:47;51.22;;;16.70;;
62929;SDS011;49036;42.782;23.108;2023-02-28T07:40:13;46.67;;;17.05;;
62929;SDS011;49036;42.782;23.108;2023-02-28T07:42:40;51.95;;;19.55;;
62929;SDS011;49036;42.782;23.108;2023-02-28T07:45:06;51.38;;;20.02;;
62929;SDS011;49036;42.782;23.108;2023-02-28T07:47:33;57.25;;;20.60;;
62929;SDS011;49036;42.782;23.108;2023-02-28T07:49:59;60.80;;;22.80;;
62929;SDS011;49036;42.782;23.108;2023-02-28T07:52:25;61.10;;;21.77;;
62929;SDS011;49036;42.782;23.108;2023-02-28T07:54:51;59.30;;;21.48;;
62929;SDS011;49036;42.782;23.108;2023-02-28T07:57:16;53.72;;;20.10;;
62929;SDS011;49036;42.782;23.108;2023-02-28T07:59:43;51.78;;;21.42;;
62929;SDS011;49036;42.782;23.108;2023-02-28T08:02:12;65.40;;;21.92;;
62929;SDS011;49036;42.782;23.108;2023-02-28T08:04:39;60.33;;;21.00;;
62929;SDS011;49036;42.782;23.108;2023-02-28T08:07:04;54.17;;;20.85;;
62929;SDS011;49036;42.782;23.108;2023-02-28T08:09:30;55.45;;;22.17;;
62929;SDS011;49036;42.782;23.108;2023-02-28T08:11:55;53.17;;;22.42;;
62929;SDS011;49036;42.782;23.108;2023-02-28T08:14:21;55.50;;;21.17;;
62929;SDS011;49036;42.782;23.108;2023-02-28T08:16:46;65.00;;;22.58;;
62929;SDS011;49036;42.782;23.108;2023-02-28T08:19:12;60.13;;;22.10;;
62929;SDS011;49036;42.782;23.108;2023-02-28T08:21:37;67.07;;;23.05;;
62929;SDS011;49036;42.782;23.108;2023-02-28T08:24:03;60.55;;;23.70;;
62929;SDS011;49036;42.782;23.108;2023-02-28T08:26:29;66.68;;;23.40;;
62929;SDS011;49036;42.782;23.108;2023-02-28T08:28:54;52.72;;;22.92;;
62929;SDS011;49036;42.782;23.108;2023-02-28T08:31:20;62.85;;;22.63;;
62929;SDS011;49036;42.782;23.108;2023-02-28T08:33:45;57.38;;;22.73;;
62929;SDS011;49036;42.782;23.108;2023-02-28T08:36:13;54.33;;;20.58;;
62929;SDS011;49036;42.782;23.108;2023-02-28T08:38:40;49.97;;;20.85;;
62929;SDS011;49036;42.782;23.108;2023-02-28T08:41:06;55.08;;;21.70;;
62929;SDS011;49036;42.782;23.108;2023-02-28T08:43:34;50.90;;;20.00;;
62929;SDS011;49036;42.782;23.108;2023-02-28T08:46:00;54.47;;;21.38;;
62929;SDS011;49036;42.782;23.108;2023-02-28T08:48:26;59.38;;;22.95;;
62929;SDS011;49036;42.782;23.108;2023-02-28T08:51:04;45.38;;;17.00;;
62929;SDS011;49036;42.782;23.108;2023-02-28T08:53:35;47.47;;;18.33;;
62929;SDS011;49036;42.782;23.108;2023-02-28T08:56:12;48.45;;;18.08;;
62929;SDS011;49036;42.782;23.108;2023-02-28T08:58:38;39.65;;;15.48;;
62929;SDS011;49036;42.782;23.108;2023-02-28T09:01:11;39.63;;;15.95;;
62929;SDS011;49036;42.782;23.108;2023-02-28T09:03:39;37.30;;;16.85;;
62929;SDS011;49036;42.782;23.108;2023-02-28T09:06:06;38.35;;;15.23;;
62929;SDS011;49036;42.782;23.108;2023-02-28T09:08:32;56.92;;;15.98;;
62929;SDS011;49036;42.782;23.108;2023-02-28T09:10:58;48.80;;;16.95;;
62929;SDS011;49036;42.782;23.108;2023-02-28T09:13:27;39.72;;;17.23;;
62929;SDS011;49036;42.782;23.108;2023-02-28T09:15:53;43.92;;;16.15;;
62929;SDS011;49036;42.782;23.108;2023-02-28T09:18:19;54.97;;;18.15;;
62929;SDS011;49036;42.782;23.108;2023-02-28T09:20:45;53.17;;;17.90;;
62929;SDS011;49036;42.782;23.108;2023-02-28T09:23:12;47.67;;;18.00;;
62929;SDS011;49036;42.782;23.108;2023-02-28T09:25:40;49.42;;;19.95;;
62929;SDS011;49036;42.782;23.108;2023-02-28T09:28:14;55.63;;;20.10;;
62929;SDS011;49036;42.782;23.108;2023-02-28T09:30:46;56.13;;;21.10;;
62929;SDS011;49036;42.782;23.108;2023-02-28T09:33:13;42.28;;;17.85;;
62929;SDS011;49036;42.782;23.108;2023-02-28T09:35:40;44.20;;;19.15;;
62929;SDS011;49036;42.782;23.108;2023-02-28T09:38:06;48.10;;;19.95;;
62929;SDS011;49036;42.782;23.108;2023-02-28T09:40:34;54.92;;;20.88;;
62929;SDS011;49036;42.782;23.108;2023-02-28T09:43:02;51.30;;;21.38;;
62929;SDS011;49036;42.782;23.108;2023-02-28T09:48:26;46.45;;;21.48;;
62929;SDS011;49036;42.782;23.108;2023-02-28T09:50:55;46.30;;;21.33;;
62929;SDS011;49036;42.782;23.108;2023-02-28T09:53:26;50.95;;;21.17;;
62929;SDS011;49036;42.782;23.108;2023-02-28T09:56:01;38.28;;;20.08;;
62929;SDS011;49036;42.782;23.108;2023-02-28T10:04:12;49.20;;;19.35;;
62929;SDS011;49036;42.782;23.108;2023-02-28T10:06:50;41.20;;;18.85;;
62929;SDS011;49036;42.782;23.108;2023-02-28T10:09:18;45.42;;;18.00;;
62929;SDS011;49036;42.782;23.108;2023-02-28T10:11:48;42.03;;;19.45;;
62929;SDS011;49036;42.782;23.108;2023-02-28T10:19:41;47.20;;;19.55;;
62929;SDS011;49036;42.782;23.108;2023-02-28T10:22:32;46.78;;;19.52;;
62929;SDS011;49036;42.782;23.108;2023-02-28T10:25:20;34.15;;;16.85;;
62929;SDS011;49036;42.782;23.108;2023-02-28T10:27:48;40.30;;;17.80;;
62929;SDS011;49036;42.782;23.108;2023-02-28T10:30:15;44.30;;;17.63;;
62929;SDS011;49036;42.782;23.108;2023-02-28T10:35:21;36.15;;;17.55;;
62929;SDS011;49036;42.782;23.108;2023-02-28T10:37:56;33.38;;;17.92;;
62929;SDS011;49036;42.782;23.108;2023-02-28T10:42:55;34.97;;;17.08;;
62929;SDS011;49036;42.782;23.108;2023-02-28T10:45:33;29.88;;;15.20;;
62929;SDS011;49036;42.782;23.108;2023-02-28T10:48:24;39.95;;;16.52;;
62929;SDS011;49036;42.782;23.108;2023-02-28T10:50:57;38.00;;;16.40;;
62929;SDS011;49036;42.782;23.108;2023-02-28T11:03:57;29.88;;;14.23;;
62929;SDS011;49036;42.782;23.108;2023-02-28T11:06:25;33.05;;;15.82;;
62929;SDS011;49036;42.782;23.108;2023-02-28T11:08:55;41.15;;;17.73;;
62929;SDS011;49036;42.782;23.108;2023-02-28T11:11:22;42.60;;;18.73;;
62929;SDS011;49036;42.782;23.108;2023-02-28T11:13:51;82.30;;;32.95;;
62929;SDS011;49036;42.782;23.108;2023-02-28T11:16:19;67.65;;;30.15;;
62929;SDS011;49036;42.782;23.108;2023-02-28T11:18:50;37.97;;;16.30;;
62929;SDS011;49036;42.782;23.108;2023-02-28T11:21:29;41.00;;;17.60;;
62929;SDS011;49036;42.782;23.108;2023-02-28T11:26:51;25.30;;;12.98;;
62929;SDS011;49036;42.782;23.108;2023-02-28T11:31:48;31.90;;;14.27;;
62929;SDS011;49036;42.782;23.108;2023-02-28T11:34:27;26.67;;;11.65;;
62929;SDS011;49036;42.782;23.108;2023-02-28T11:39:19;18.60;;;9.63;;
62929;SDS011;49036;42.782;23.108;2023-02-28T11:50:14;35.03;;;11.57;;
62929;SDS011;49036;42.782;23.108;2023-02-28T11:52:55;22.65;;;10.32;;
62929;SDS011;49036;42.782;23.108;2023-02-28T11:58:00;22.50;;;9.45;;
62929;SDS011;49036;42.782;23.108;2023-02-28T12:00:44;28.73;;;11.50;;
62929;SDS011;49036;42.782;23.108;2023-02-28T12:08:57;29.40;;;12.05;;
62929;SDS011;49036;42.782;23.108;2023-02-28T12:11:45;27.95;;;10.98;;
62929;SDS011;49036;42.782;23.108;2023-02-28T12:25:39;27.40;;;11.50;;
62929;SDS011;49036;42.782;23.108;2023-02-28T12:28:21;38.30;;;10.98;;
62929;SDS011;49036;42.782;23.108;2023-02-28T12:33:20;30.25;;;11.98;;
62929;SDS011;49036;42.782;23.108;2023-02-28T12:35:51;31.15;;;12.13;;
62929;SDS011;49036;42.782;23.108;2023-02-28T12:38:36;29.63;;;11.93;;
62929;SDS011;49036;42.782;23.108;2023-02-28T12:41:29;28.42;;;11.40;;
62929;SDS011;49036;42.782;23.108;2023-02-28T12:44:06;28.45;;;11.40;;
62929;SDS011;49036;42.782;23.108;2023-02-28T12:46:55;27.17;;;9.88;;
62929;SDS011;49036;42.782;23.108;2023-02-28T12:49:28;30.60;;;11.82;;
62929;SDS011;49036;42.782;23.108;2023-02-28T12:51:59;25.42;;;10.60;;
62929;SDS011;49036;42.782;23.108;2023-02-28T12:54:32;27.08;;;10.40;;
62929;SDS011;49036;42.782;23.108;2023-02-28T12:57:15;21.42;;;10.88;;
62929;SDS011;49036;42.782;23.108;2023-02-28T12:59:50;23.73;;;9.80;;
62929;SDS011;49036;42.782;23.108;2023-02-28T13:10:52;28.38;;;9.15;;
62929;SDS011;49036;42.782;23.108;2023-02-28T13:13:25;25.55;;;9.27;;
62929;SDS011;49036;42.782;23.108;2023-02-28T13:15:58;27.38;;;9.48;;
62929;SDS011;49036;42.782;23.108;2023-02-28T13:23:41;27.20;;;10.07;;
62929;SDS011;49036;42.782;23.108;2023-02-28T13:34:34;19.50;;;8.88;;
62929;SDS011;49036;42.782;23.108;2023-02-28T13:39:51;22.63;;;8.50;;
62929;SDS011;49036;42.782;23.108;2023-02-28T14:06:29;22.15;;;8.68;;
62929;SDS011;49036;42.782;23.108;2023-02-28T14:11:49;26.63;;;9.23;;
62929;SDS011;49036;42.782;23.108;2023-02-28T14:17:00;25.15;;;9.60;;
62929;SDS011;49036;42.782;23.108;2023-02-28T14:19:28;25.00;;;8.88;;
62929;SDS011;49036;42.782;23.108;2023-02-28T14:22:08;36.42;;;12.73;;
62929;SDS011;49036;42.782;23.108;2023-02-28T14:27:37;40.30;;;16.58;;
62929;SDS011;49036;42.782;23.108;2023-02-28T14:33:41;22.95;;;10.45;;
62929;SDS011;49036;42.782;23.108;2023-02-28T14:36:17;22.13;;;10.10;;
62929;SDS011;49036;42.782;23.108;2023-02-28T14:39:01;37.33;;;13.05;;
62929;SDS011;49036;42.782;23.108;2023-02-28T14:41:36;21.35;;;10.15;;
62929;SDS011;49036;42.782;23.108;2023-02-28T14:49:26;33.92;;;13.80;;
62929;SDS011;49036;42.782;23.108;2023-02-28T14:52:13;32.60;;;11.68;;
62929;SDS011;49036;42.782;23.108;2023-02-28T14:54:42;25.23;;;12.25;;
62929;SDS011;49036;42.782;23.108;2023-02-28T14:59:59;28.27;;;11.90;;
62929;SDS011;49036;42.782;23.108;2023-02-28T15:02:26;18.70;;;7.80;;
62929;SDS011;49036;42.782;23.108;2023-02-28T15:05:00;18.60;;;9.63;;
62929;SDS011;49036;42.782;23.108;2023-02-28T15:07:35;23.23;;;10.75;;
62929;SDS011;49036;42.782;23.108;2023-02-28T15:12:56;17.20;;;8.95;;
62929;SDS011;49036;42.782;23.108;2023-02-28T15:16:06;18.02;;;7.75;;
62929;SDS011;49036;42.782;23.108;2023-02-28T15:18:22;15.80;;;7.88;;
62929;SDS011;49036;42.782;23.108;2023-02-28T15:20:53;20.73;;;8.35;;
62929;SDS011;49036;42.782;23.108;2023-02-28T15:23:21;19.63;;;8.02;;
62929;SDS011;49036;42.782;23.108;2023-02-28T15:25:48;22.15;;;6.72;;
62929;SDS011;49036;42.782;23.108;2023-02-28T15:28:18;15.80;;;7.97;;
62929;SDS011;49036;42.782;23.108;2023-02-28T15:30:50;13.38;;;7.07;;
62929;SDS011;49036;42.782;23.108;2023-02-28T15:33:19;13.93;;;7.47;;
62929;SDS011;49036;42.782;23.108;2023-02-28T15:35:47;16.67;;;7.43;;
62929;SDS011;49036;42.782;23.108;2023-02-28T15:38:23;14.05;;;7.10;;
62929;SDS011;49036;42.782;23.108;2023-02-28T15:40:54;18.30;;;7.85;;
62929;SDS011;49036;42.782;23.108;2023-02-28T15:43:32;19.52;;;7.45;;
62929;SDS011;49036;42.782;23.108;2023-02-28T15:48:52;17.02;;;7.22;;
62929;SDS011;49036;42.782;23.108;2023-02-28T15:51:22;17.23;;;8.30;;
62929;SDS011;49036;42.782;23.108;2023-02-28T15:54:06;16.17;;;7.30;;
62929;SDS011;49036;42.782;23.108;2023-02-28T15:56:33;19.65;;;7.03;;
62929;SDS011;49036;42.782;23.108;2023-02-28T15:59:06;16.23;;;7.60;;
62929;SDS011;49036;42.782;23.108;2023-02-28T16:01:38;12.70;;;6.55;;
62929;SDS011;49036;42.782;23.108;2023-02-28T16:04:04;17.67;;;7.22;;
62929;SDS011;49036;42.782;23.108;2023-02-28T16:06:38;16.77;;;6.40;;
62929;SDS011;49036;42.782;23.108;2023-02-28T16:09:11;18.80;;;7.28;;
62929;SDS011;49036;42.782;23.108;2023-02-28T16:11:43;22.10;;;8.20;;
62929;SDS011;49036;42.782;23.108;2023-02-28T16:14:23;15.50;;;7.35;;
62929;SDS011;49036;42.782;23.108;2023-02-28T16:16:54;14.88;;;7.40;;
62929;SDS011;49036;42.782;23.108;2023-02-28T16:19:21;15.60;;;7.30;;
62929;SDS011;49036;42.782;23.108;2023-02-28T16:21:48;16.02;;;6.20;;
62929;SDS011;49036;42.782;23.108;2023-02-28T16:24:13;12.18;;;5.32;;
62929;SDS011;49036;42.782;23.108;2023-02-28T16:26:40;15.00;;;5.97;;
62929;SDS011;49036;42.782;23.108;2023-02-28T16:29:08;16.73;;;6.25;;
62929;SDS011;49036;42.782;23.108;2023-02-28T16:31:38;16.25;;;6.15;;
62929;SDS011;49036;42.782;23.108;2023-02-28T16:34:04;14.63;;;6.35;;
62929;SDS011;49036;42.782;23.108;2023-02-28T16:38:55;14.13;;;5.25;;
62929;SDS011;49036;42.782;23.108;2023-02-28T16:41:23;10.27;;;5.70;;
62929;SDS011;49036;42.782;23.108;2023-02-28T16:43:51;19.75;;;5.43;;
62929;SDS011;49036;42.782;23.108;2023-02-28T16:46:19;12.93;;;4.85;;
62929;SDS011;49036;42.782;23.108;2023-02-28T16:51:14;15.27;;;6.07;;
62929;SDS011;49036;42.782;23.108;2023-02-28T16:53:41;16.75;;;5.18;;
62929;SDS011;49036;42.782;23.108;2023-02-28T16:56:13;13.48;;;4.07;;
62929;SDS011;49036;42.782;23.108;2023-02-28T16:58:44;8.52;;;4.47;;
62929;SDS011;49036;42.782;23.108;2023-02-28T17:01:10;15.75;;;5.15;;
62929;SDS011;49036;42.782;23.108;2023-02-28T17:03:36;126.63;;;72.43;;
62929;SDS011;49036;42.782;23.108;2023-02-28T17:06:02;8.57;;;4.07;;
62929;SDS011;49036;42.782;23.108;2023-02-28T17:08:29;9.98;;;3.83;;
62929;SDS011;49036;42.782;23.108;2023-02-28T17:10:57;16.63;;;4.53;;
62929;SDS011;49036;42.782;23.108;2023-02-28T17:13:23;11.10;;;3.33;;
62929;SDS011;49036;42.782;23.108;2023-02-28T17:15:48;9.05;;;3.80;;
62929;SDS011;49036;42.782;23.108;2023-02-28T17:18:15;10.60;;;3.83;;
62929;SDS011;49036;42.782;23.108;2023-02-28T17:20:44;6.22;;;2.85;;
62929;SDS011;49036;42.782;23.108;2023-02-28T17:23:10;12.10;;;3.55;;
62929;SDS011;49036;42.782;23.108;2023-02-28T17:25:36;12.10;;;3.95;;
62929;SDS011;49036;42.782;23.108;2023-02-28T17:28:02;14.77;;;3.67;;
62929;SDS011;49036;42.782;23.108;2023-02-28T17:30:28;9.30;;;3.65;;
62929;SDS011;49036;42.782;23.108;2023-02-28T17:32:57;6.10;;;3.38;;
62929;SDS011;49036;42.782;23.108;2023-02-28T17:35:23;8.35;;;3.95;;
62929;SDS011;49036;42.782;23.108;2023-02-28T17:40:15;6.72;;;3.90;;
62929;SDS011;49036;42.782;23.108;2023-02-28T17:42:43;8.63;;;4.00;;
62929;SDS011;49036;42.782;23.108;2023-02-28T17:45:10;7.82;;;4.25;;
62929;SDS011;49036;42.782;23.108;2023-02-28T17:47:36;11.23;;;4.18;;
62929;SDS011;49036;42.782;23.108;2023-02-28T17:52:28;6.53;;;3.30;;
62929;SDS011;49036;42.782;23.108;2023-02-28T17:54:54;6.80;;;3.70;;
62929;SDS011;49036;42.782;23.108;2023-02-28T17:57:20;7.20;;;3.70;;